Time;durP1;ratioP1;P1;durP2;ratioP2;P2;SDS_P1;SDS_P2;PMS_P1;PMS_P2;Temp;Humidity;BMP_temperature;BMP_pressure;BME280_temperature;BME280_humidity;BME280_pressure;Samples;Min_cycle;Max_cycle;Signal;HPM_P1;HPM_P2
2022/02/03 00:00:22;;;;;;;7.55;2.30;;;;;;;2.48;92.43;101366.81;4966489;28;20069;-83
2022/02/03 00:03:08;;;;;;;8.05;2.72;;;;;;;2.48;91.82;101363.38;4951697;28;20050;-84
2022/02/03 00:05:47;;;;;;;9.10;3.40;;;;;;;2.46;91.93;101360.72;4971090;28;20054;-87
2022/02/03 00:08:27;;;;;;;7.82;3.08;;;;;;;2.48;91.78;101364.22;4969561;28;20050;-82
2022/02/03 00:16:44;;;;;;;7.43;3.00;;;;;;;2.56;91.82;101355.88;4982225;28;20061;-83
2022/02/03 00:22:19;;;;;;;3.50;1.58;;;;;;;2.61;91.43;101352.63;4917461;28;20059;-84
2022/02/03 00:25:10;;;;;;;9.57;2.58;;;;;;;2.63;91.95;101348.41;4977327;28;20073;-85
2022/02/03 00:27:56;;;;;;;6.50;2.03;;;;;;;2.66;91.46;101337.28;4952184;28;20057;-84
2022/02/03 00:30:33;;;;;;;10.93;1.88;;;;;;;2.70;91.71;101343.41;4968430;28;20054;-84
2022/02/03 00:36:02;;;;;;;6.20;1.35;;;;;;;2.73;91.51;101333.19;4957818;28;20058;-83
2022/02/03 00:49:54;;;;;;;4.43;1.67;;;;;;;2.72;92.21;101310.75;4965635;28;20050;-85
2022/02/03 00:52:23;;;;;;;8.30;1.88;;;;;;;2.68;92.50;101309.78;4983299;28;21489;-86
2022/02/03 00:54:49;;;;;;;9.57;2.00;;;;;;;2.67;92.52;101313.16;4969525;28;20080;-84
2022/02/03 00:57:26;;;;;;;11.02;2.42;;;;;;;2.65;92.88;101310.53;4947067;28;20897;-82
2022/02/03 01:00:09;;;;;;;8.75;2.28;;;;;;;2.64;92.92;101302.75;4969729;28;21018;-84
2022/02/03 01:02:45;;;;;;;11.70;3.00;;;;;;;2.62;93.08;101297.53;4947415;28;20125;-85
2022/02/03 01:05:13;;;;;;;10.07;2.20;;;;;;;2.62;93.39;101296.63;4954679;28;22786;-83
2022/02/03 01:07:49;;;;;;;5.55;2.38;;;;;;;2.59;93.59;101292.22;4969438;28;20283;-84
2022/02/03 01:10:22;;;;;;;6.45;2.25;;;;;;;2.58;93.51;101284.44;4966180;28;20608;-84
2022/02/03 01:12:59;;;;;;;9.75;3.25;;;;;;;2.57;93.81;101283.56;4985961;28;20532;-85
2022/02/03 01:15:35;;;;;;;6.60;2.63;;;;;;;2.55;94.16;101284.34;4981287;28;20054;-86
2022/02/03 01:18:31;;;;;;;15.50;3.20;;;;;;;2.56;94.09;101283.53;4964611;28;20050;-83
2022/02/03 01:21:23;;;;;;;6.25;2.20;;;;;;;2.55;94.11;101285.19;4973167;28;20663;-82
2022/02/03 01:34:59;;;;;;;11.07;2.33;;;;;;;2.61;94.24;101263.88;4973214;28;20038;-85
2022/02/03 01:37:49;;;;;;;10.13;3.08;;;;;;;2.61;94.51;101261.28;4972363;28;20038;-85
2022/02/03 01:43:28;;;;;;;8.52;2.83;;;;;;;2.63;94.82;101249.28;4970854;28;20731;-83
2022/02/03 01:45:57;;;;;;;10.10;1.95;;;;;;;2.67;95.04;101252.84;4955407;28;20160;-85
2022/02/03 01:48:40;;;;;;;7.53;2.67;;;;;;;2.72;94.79;101248.72;4967694;28;20138;-85
2022/02/03 01:53:57;;;;;;;14.70;3.67;;;;;;;2.84;94.34;101238.75;4969686;28;20046;-84
2022/02/03 01:56:34;;;;;;;9.07;3.05;;;;;;;2.91;94.16;101230.38;4954929;28;20301;-83
2022/02/03 01:59:04;;;;;;;8.57;3.00;;;;;;;2.96;93.93;101221.06;4963389;28;20050;-86
2022/02/03 02:01:33;;;;;;;13.93;4.82;;;;;;;3.03;94.02;101221.25;4971437;28;20128;-87
2022/02/03 02:04:42;;;;;;;9.88;2.75;;;;;;;3.11;94.38;101225.81;4964439;28;20132;-85
2022/02/03 02:07:35;;;;;;;7.93;2.95;;;;;;;3.17;94.17;101225.13;4965376;28;20061;-84
2022/02/03 02:10:26;;;;;;;4.93;1.95;;;;;;;3.22;94.31;101209.75;4961367;28;20061;-86
2022/02/03 02:13:32;;;;;;;6.47;2.47;;;;;;;3.24;94.56;101215.84;4955234;28;20054;-85
2022/02/03 02:16:14;;;;;;;8.05;2.40;;;;;;;3.24;94.58;101211.53;4965344;28;20046;-83
2022/02/03 02:39:49;;;;;;;10.98;3.03;;;;;;;3.55;97.46;101193.47;4978089;28;20049;-84
2022/02/03 02:42:32;;;;;;;8.30;3.33;;;;;;;3.56;97.21;101187.44;4965859;28;20043;-82
2022/02/03 02:45:10;;;;;;;16.58;4.20;;;;;;;3.57;97.96;101178.84;4965816;28;20123;-84
2022/02/03 02:48:11;;;;;;;13.10;5.15;;;;;;;3.57;98.52;101179.72;4980761;28;20100;-81
2022/02/03 02:51:09;;;;;;;18.55;4.65;;;;;;;3.56;99.20;101165.03;4971968;28;20135;-84
2022/02/03 02:57:14;;;;;;;13.50;4.82;;;;;;;3.57;100.00;101163.28;4960258;28;20054;-84
2022/02/03 03:31:02;;;;;;;16.13;6.32;;;;;;;3.76;100.00;101133.63;4967653;28;20192;-85
2022/02/03 03:33:35;;;;;;;18.75;7.32;;;;;;;3.75;100.00;101118.91;4956486;28;20058;-84
2022/02/03 03:36:06;;;;;;;21.30;6.65;;;;;;;3.72;100.00;101119.72;4947291;28;20101;-84
2022/02/03 03:38:36;;;;;;;18.85;7.28;;;;;;;3.71;100.00;101109.31;4967469;28;20050;-84
2022/02/03 03:41:04;;;;;;;24.17;6.72;;;;;;;3.68;100.00;101117.88;4962367;28;20129;-85
2022/02/03 03:43:38;;;;;;;21.65;7.32;;;;;;;3.65;100.00;101112.63;4951288;28;20524;-85
2022/02/03 03:46:37;;;;;;;17.85;7.35;;;;;;;3.64;100.00;101110.88;4966936;28;20054;-86
2022/02/03 03:49:35;;;;;;;26.55;7.65;;;;;;;3.64;100.00;101103.97;4964647;28;20050;-85
2022/02/03 03:52:13;;;;;;;14.07;6.80;;;;;;;3.62;100.00;101103.06;4969260;28;20051;-85
2022/02/03 03:54:55;;;;;;;13.60;6.80;;;;;;;3.63;100.00;101107.38;4965637;28;21570;-84
2022/02/03 03:57:43;;;;;;;15.40;6.68;;;;;;;3.64;100.00;101103.97;4968462;28;20050;-85
2022/02/03 04:00:41;;;;;;;14.82;6.78;;;;;;;3.64;100.00;101101.38;4967963;28;20050;-84
2022/02/03 04:31:39;;;;;;;22.20;8.00;;;;;;;3.77;100.00;101092.22;4942617;28;20072;-84
2022/02/03 04:34:43;;;;;;;15.23;6.88;;;;;;;3.80;100.00;101086.25;4970978;28;20053;-83
2022/02/03 04:50:55;;;;;;;14.80;6.97;;;;;;;3.86;100.00;101078.66;4955100;28;20051;-83
2022/02/03 05:03:37;;;;;;;10.63;4.85;;;;;;;3.94;100.00;101043.44;4951178;28;20179;-85
2022/02/03 05:06:43;;;;;;;9.10;4.32;;;;;;;3.99;100.00;101040.97;4970244;28;20112;-88
2022/02/03 05:10:09;;;;;;;6.72;4.30;;;;;;;4.00;100.00;101037.53;4951885;28;20108;-86
2022/02/03 05:13:09;;;;;;;7.30;4.75;;;;;;;4.02;100.00;101030.69;4954818;28;21210;-86
2022/02/03 05:16:39;;;;;;;6.45;4.07;;;;;;;4.05;100.00;101033.31;4975020;28;20066;-84
2022/02/03 05:23:01;;;;;;;8.10;3.30;;;;;;;4.08;100.00;101024.75;4990594;28;20062;-85
2022/02/03 05:26:13;;;;;;;7.53;4.35;;;;;;;4.12;100.00;101024.00;4999116;28;20038;-85
2022/02/03 05:32:57;;;;;;;7.72;4.53;;;;;;;4.21;100.00;101020.72;5002538;28;20058;-85
2022/02/03 05:42:24;;;;;;;5.70;2.92;;;;;;;4.32;100.00;101021.88;4971201;28;20046;-82
2022/02/03 05:51:08;;;;;;;5.63;3.70;;;;;;;4.40;100.00;101014.25;4960787;28;20089;-84
2022/02/03 06:04:47;;;;;;;5.22;3.92;;;;;;;4.54;100.00;101005.06;4946701;28;20050;-86
2022/02/03 06:07:46;;;;;;;5.00;3.47;;;;;;;4.57;100.00;100999.94;4961147;28;20050;-86
2022/02/03 06:13:04;;;;;;;4.35;4.00;;;;;;;4.64;100.00;100995.75;4979405;28;20477;-84
2022/02/03 06:15:41;;;;;;;5.50;3.83;;;;;;;4.66;100.00;101003.59;4960141;28;20061;-84
2022/02/03 06:23:56;;;;;;;7.30;4.72;;;;;;;4.68;100.00;100992.41;4967005;28;20497;-82
2022/02/03 06:29:19;;;;;;;7.75;4.40;;;;;;;4.73;100.00;100983.00;4968958;28;20070;-84
2022/02/03 06:31:57;;;;;;;9.95;6.22;;;;;;;4.76;100.00;100977.84;4982342;28;20591;-85
2022/02/03 06:34:37;;;;;;;8.32;6.25;;;;;;;4.76;100.00;100977.84;4973353;28;20056;-84
2022/02/03 06:37:07;;;;;;;10.80;6.75;;;;;;;4.80;100.00;100976.22;4968204;28;20046;-86
2022/02/03 06:39:44;;;;;;;9.20;6.60;;;;;;;4.84;100.00;100974.53;4958867;28;20046;-85
2022/02/03 06:42:11;;;;;;;12.35;7.30;;;;;;;4.87;100.00;100972.88;4973884;28;20050;-86
2022/02/03 06:44:45;;;;;;;8.73;6.15;;;;;;;4.89;100.00;100968.59;4977618;28;20128;-83
2022/02/03 06:47:35;;;;;;;11.88;6.70;;;;;;;4.91;100.00;100968.63;4991122;28;20832;-86
2022/02/03 06:50:15;;;;;;;10.50;6.50;;;;;;;4.94;100.00;100966.97;4987530;28;20142;-86
2022/02/03 06:52:50;;;;;;;12.35;6.78;;;;;;;4.97;100.00;100966.16;4958754;28;20050;-86
2022/02/03 06:55:21;;;;;;;12.60;6.95;;;;;;;5.01;100.00;100962.78;4969354;28;20058;-85
2022/02/03 06:57:53;;;;;;;12.68;7.68;;;;;;;5.05;100.00;100958.53;4971602;28;20557;-85
2022/02/03 07:00:23;;;;;;;10.02;6.63;;;;;;;5.05;100.00;100959.38;4969248;28;20046;-86
2022/02/03 07:02:53;;;;;;;13.32;7.88;;;;;;;5.06;100.00;100960.25;4958638;28;20059;-85
2022/02/03 07:05:21;;;;;;;12.25;6.78;;;;;;;5.07;100.00;100955.09;4977459;28;20054;-84
2022/02/03 07:07:48;;;;;;;10.45;6.93;;;;;;;5.09;100.00;100949.94;4966220;28;20069;-85
2022/02/03 07:10:15;;;;;;;10.68;7.65;;;;;;;5.11;100.00;100948.22;4975464;28;20177;-85
2022/02/03 07:12:41;;;;;;;12.13;7.50;;;;;;;5.14;100.00;100954.34;4970455;28;20050;-83
2022/02/03 07:15:11;;;;;;;12.55;7.63;;;;;;;5.18;100.00;100957.91;4972545;28;20129;-87
2022/02/03 07:17:39;;;;;;;15.52;8.63;;;;;;;5.26;100.00;100948.50;4975530;28;20125;-84
2022/02/03 07:20:09;;;;;;;14.73;9.38;;;;;;;5.30;100.00;100946.84;4950664;28;20085;-88
2022/02/03 07:22:38;;;;;;;17.63;8.88;;;;;;;5.34;100.00;100956.44;4958076;28;20581;-84
2022/02/03 07:25:04;;;;;;;12.77;8.43;;;;;;;5.39;100.00;100953.94;4953658;28;21159;-88
2022/02/03 07:27:31;;;;;;;13.80;8.13;;;;;;;5.42;100.00;100953.97;4970759;28;20057;-81
2022/02/03 07:29:58;;;;;;;13.05;8.73;;;;;;;5.46;100.00;100955.75;4958098;28;20050;-84
2022/02/03 07:32:25;;;;;;;14.38;8.93;;;;;;;5.47;100.00;100960.13;4967758;28;20600;-87
2022/02/03 07:34:54;;;;;;;14.15;7.50;;;;;;;5.49;100.00;100962.72;4955418;28;20050;-83
2022/02/03 07:37:27;;;;;;;11.65;7.72;;;;;;;5.50;100.00;100957.59;4945154;28;20073;-85
2022/02/03 07:39:55;;;;;;;11.05;7.22;;;;;;;5.53;100.00;100959.34;4972045;28;20111;-86
2022/02/03 07:42:21;;;;;;;15.93;8.77;;;;;;;5.54;100.00;100959.38;4975688;28;20061;-87
2022/02/03 07:44:50;;;;;;;18.40;10.70;;;;;;;5.55;100.00;100958.50;4971325;28;20055;-85
2022/02/03 07:47:20;;;;;;;12.43;8.73;;;;;;;5.56;100.00;100957.66;4968803;28;20509;-84
2022/02/03 07:49:47;;;;;;;11.60;8.48;;;;;;;5.58;100.00;100958.59;4965378;28;20069;-84
2022/02/03 07:52:13;;;;;;;14.20;9.25;;;;;;;5.58;100.00;100958.59;4984266;28;20046;-86
2022/02/03 07:54:42;;;;;;;16.08;8.93;;;;;;;5.60;100.00;100956.88;4945917;28;20096;-84
2022/02/03 07:57:10;;;;;;;10.57;7.65;;;;;;;5.61;100.00;100950.81;4950773;28;20042;-87
2022/02/03 07:59:37;;;;;;;16.38;8.73;;;;;;;5.61;100.00;100955.16;4977204;28;20050;-83
2022/02/03 08:02:29;;;;;;;14.00;9.35;;;;;;;5.62;100.00;100955.19;4971102;28;20053;-87
2022/02/03 08:05:02;;;;;;;13.90;8.93;;;;;;;5.63;100.00;100953.44;4953161;28;20050;-84
2022/02/03 08:07:29;;;;;;;15.50;9.25;;;;;;;5.66;100.00;100957.81;4975301;28;20046;-84
2022/02/03 08:10:00;;;;;;;16.27;9.75;;;;;;;5.69;100.00;100950.94;4967340;28;20038;-86
2022/02/03 08:12:30;;;;;;;18.33;9.88;;;;;;;5.73;100.00;100941.50;4964063;28;20050;-86
2022/02/03 08:14:58;;;;;;;16.73;9.98;;;;;;;5.76;100.00;100942.44;4955567;28;20056;-84
2022/02/03 08:17:34;;;;;;;19.40;11.32;;;;;;;5.81;100.00;100939.88;4953298;28;20891;-88
2022/02/03 08:20:04;;;;;;;18.95;11.00;;;;;;;5.83;100.00;100938.19;4949387;28;20091;-84
2022/02/03 08:22:35;;;;;;;21.83;11.15;;;;;;;5.86;100.00;100937.38;4955834;28;20058;-86
2022/02/03 08:25:08;;;;;;;18.05;11.57;;;;;;;5.90;100.00;100933.94;4949113;28;20501;-85
2022/02/03 08:30:37;;;;;;;17.63;11.23;;;;;;;5.97;100.00;100931.47;4934600;28;20046;-84
2022/02/03 08:33:05;;;;;;;17.50;10.48;;;;;;;6.00;100.00;100925.47;4966906;28;20046;-86
2022/02/03 08:35:39;;;;;;;17.73;10.68;;;;;;;6.03;100.00;100932.44;4940215;28;20050;-84
2022/02/03 08:38:19;;;;;;;15.77;9.75;;;;;;;6.05;100.00;100930.72;4961942;28;20061;-86
2022/02/03 08:41:01;;;;;;;18.15;10.65;;;;;;;6.09;100.00;100929.94;4967293;28;20204;-83
2022/02/03 08:43:30;;;;;;;19.88;11.38;;;;;;;6.11;100.00;100928.22;4963716;28;20052;-84
2022/02/03 08:46:02;;;;;;;17.95;10.48;;;;;;;6.14;100.00;100925.69;4983147;28;20053;-84
2022/02/03 08:48:29;;;;;;;15.98;11.77;;;;;;;6.16;100.00;100921.34;4965419;28;20069;-84
2022/02/03 08:50:55;;;;;;;14.73;9.55;;;;;;;6.20;100.00;100912.75;4962806;28;20046;-85
2022/02/03 08:53:27;;;;;;;15.30;9.93;;;;;;;6.23;100.00;100911.91;4953094;28;20042;-84
2022/02/03 08:56:05;;;;;;;18.05;10.38;;;;;;;6.27;100.00;100914.59;4958012;28;20078;-86
2022/02/03 08:59:01;;;;;;;26.73;15.00;;;;;;;6.30;100.00;100903.34;4960768;28;20065;-86
2022/02/03 09:37:23;;;;;;;15.60;8.45;;;;;;;6.82;100.00;100870.97;4964627;28;20092;-84
2022/02/03 09:59:32;;;;;;;17.60;10.63;;;;;;;7.10;100.00;100880.81;4903438;28;21285;-87
2022/02/03 10:02:08;;;;;;;17.95;11.07;;;;;;;7.11;100.00;100873.84;4931874;28;20573;-86
2022/02/03 10:04:45;;;;;;;17.83;11.43;;;;;;;7.14;100.00;100878.22;4965894;28;20133;-87
2022/02/03 10:07:34;;;;;;;16.58;9.48;;;;;;;7.16;100.00;100874.75;4979881;28;20043;-84
2022/02/03 10:10:08;;;;;;;15.50;9.88;;;;;;;7.18;100.00;100882.59;4973096;28;20169;-87
2022/02/03 10:12:40;;;;;;;14.35;10.75;;;;;;;7.21;100.00;100882.59;4967878;28;20047;-87
2022/02/03 10:15:11;;;;;;;14.10;9.63;;;;;;;7.18;100.00;100878.22;4960891;28;20047;-87
2022/02/03 10:17:48;;;;;;;15.23;10.18;;;;;;;7.19;100.00;100876.53;4967598;28;20054;-87
2022/02/03 10:20:20;;;;;;;18.55;11.63;;;;;;;7.19;100.00;100880.00;4937102;28;20137;-89
2022/02/03 10:22:53;;;;;;;18.83;11.45;;;;;;;7.18;100.00;100869.56;4970252;28;20046;-85
2022/02/03 10:25:33;;;;;;;16.27;11.30;;;;;;;7.19;100.00;100869.56;4984960;28;20446;-86
2022/02/03 10:28:13;;;;;;;15.95;9.85;;;;;;;7.21;100.00;100870.47;4962939;28;20046;-86
2022/02/03 10:30:46;;;;;;;14.20;9.98;;;;;;;7.21;100.00;100864.38;4956062;28;20615;-86
2022/02/03 10:33:14;;;;;;;15.70;10.38;;;;;;;7.23;100.00;100865.28;4965936;28;20046;-86
2022/02/03 10:44:40;;;;;;;27.02;16.17;;;;;;;7.11;100.00;100848.69;4976782;28;20133;-86
2022/02/03 10:56:05;;;;;;;31.25;17.48;;;;;;;6.91;100.00;100851.13;4964356;28;20090;-87
2022/02/03 10:59:11;;;;;;;29.83;17.35;;;;;;;6.90;100.00;100851.09;4974524;28;20046;-86
2022/02/03 11:02:04;;;;;;;30.80;17.35;;;;;;;6.91;100.00;100852.84;4978540;28;20457;-86
2022/02/03 11:07:39;;;;;;;26.33;15.88;;;;;;;6.96;100.00;100853.75;5098944;27;20405;-86
2022/02/03 11:10:21;;;;;;;28.13;17.02;;;;;;;6.94;100.00;100856.34;5047675;28;20045;-85
2022/02/03 11:15:34;;;;;;;20.55;12.77;;;;;;;6.99;100.00;100845.97;5060791;28;20048;-85
2022/02/03 11:18:14;;;;;;;16.70;11.40;;;;;;;7.07;100.00;100838.25;5066104;28;20055;-85
2022/02/03 11:20:42;;;;;;;17.67;11.40;;;;;;;7.14;100.00;100852.19;5052966;28;20056;-85
2022/02/03 11:23:21;;;;;;;17.27;11.15;;;;;;;7.15;100.00;100846.13;5066617;28;20157;-84
2022/02/03 11:26:05;;;;;;;17.75;12.15;;;;;;;7.14;100.00;100852.19;5070244;28;20578;-88
2022/02/03 11:43:24;;;;;;;24.55;14.70;;;;;;;6.99;100.00;100816.47;5062085;28;20098;-85
2022/02/03 11:46:20;;;;;;;24.48;16.33;;;;;;;6.98;100.00;100817.34;5064690;28;20524;-85
2022/02/03 11:49:10;;;;;;;;;;;;;;;7.00;100.00;100810.41;5043086;28;20040;-85
2022/02/03 11:52:12;;;;;;;24.75;14.45;;;;;;;7.03;100.00;100802.66;5052123;28;20453;-86
2022/02/03 12:03:23;;;;;;;18.70;13.75;;;;;;;7.18;100.00;100783.66;5035087;28;20739;-85
2022/02/03 12:14:31;;;;;;;17.83;12.65;;;;;;;7.33;100.00;100757.72;5031648;28;21016;-85
2022/02/03 12:23:08;;;;;;;14.82;8.93;;;;;;;7.33;100.00;100767.28;5021524;28;20045;-86
2022/02/03 12:25:51;;;;;;;12.77;9.48;;;;;;;7.32;100.00;100766.38;5038042;28;20083;-88
2022/02/03 12:28:29;;;;;;;16.23;8.98;;;;;;;7.32;100.00;100765.53;5029153;28;20059;-84
2022/02/03 12:39:49;;;;;;;12.32;8.77;;;;;;;7.33;100.00;100741.22;5039990;28;20045;-87
2022/02/03 12:42:32;;;;;;;16.13;8.82;;;;;;;7.34;100.00;100735.13;5033800;28;20032;-83
2022/02/03 12:45:31;;;;;;;15.38;9.80;;;;;;;7.35;100.00;100731.69;5040805;28;20129;-86
2022/02/03 12:48:04;;;;;;;12.93;8.95;;;;;;;7.37;100.00;100730.81;5050029;28;20047;-86
2022/02/03 12:50:43;;;;;;;14.68;8.63;;;;;;;7.36;100.00;100723.00;5040639;28;20053;-85
2022/02/03 12:53:13;;;;;;;12.88;9.50;;;;;;;7.32;99.96;100729.06;5059961;28;20056;-88
2022/02/03 12:55:43;;;;;;;13.98;9.48;;;;;;;7.29;99.75;100716.91;5051378;28;20044;-86
2022/02/03 12:58:16;;;;;;;15.95;9.80;;;;;;;7.29;100.00;100714.28;5041439;28;20028;-87
2022/02/03 13:00:51;;;;;;;16.65;8.98;;;;;;;7.26;100.00;100712.53;5057262;28;20050;-85
2022/02/03 13:03:19;;;;;;;15.98;9.50;;;;;;;7.32;99.86;100709.09;5039105;28;20131;-84
2022/02/03 13:05:57;;;;;;;13.65;8.45;;;;;;;7.28;99.73;100702.13;5042449;28;20048;-86
2022/02/03 13:08:43;;;;;;;17.65;8.55;;;;;;;7.19;100.00;100704.69;5019273;28;20052;-87
2022/02/03 13:11:24;;;;;;;14.68;9.20;;;;;;;7.17;100.00;100694.28;5071358;28;20056;-86
2022/02/03 13:14:28;;;;;;;12.43;8.43;;;;;;;7.18;100.00;100696.00;5063329;28;20040;-84
2022/02/03 13:17:02;;;;;;;12.63;8.53;;;;;;;7.19;100.00;100682.13;5021460;28;20052;-85
2022/02/03 13:19:42;;;;;;;13.45;8.48;;;;;;;7.18;100.00;100685.56;5027762;28;20052;-83
2022/02/03 13:22:20;;;;;;;12.18;9.68;;;;;;;7.23;100.00;100688.22;5019232;28;21139;-83
2022/02/03 13:25:20;;;;;;;14.32;8.80;;;;;;;7.23;100.00;100685.63;5033889;28;21003;-85
2022/02/03 13:27:58;;;;;;;11.70;8.60;;;;;;;7.22;100.00;100687.34;5031968;28;20245;-83
2022/02/03 13:30:45;;;;;;;15.30;8.75;;;;;;;7.21;100.00;100687.31;5002802;28;20094;-84
2022/02/03 13:33:20;;;;;;;12.70;8.05;;;;;;;7.19;100.00;100676.91;5031475;28;20048;-85
2022/02/03 13:35:54;;;;;;;12.55;8.25;;;;;;;7.17;100.00;100673.44;5047747;28;20048;-84
2022/02/03 13:38:40;;;;;;;9.48;7.68;;;;;;;7.17;100.00;100677.75;5011967;28;20063;-85
2022/02/03 13:41:24;;;;;;;13.35;8.05;;;;;;;7.18;100.00;100669.09;5017795;28;20048;-88
2022/02/03 13:46:44;;;;;;;9.27;7.18;;;;;;;7.23;100.00;100646.56;5031458;28;20067;-84
2022/02/03 13:49:20;;;;;;;12.15;8.20;;;;;;;7.25;100.00;100650.91;5027828;28;20562;-83
2022/02/03 13:52:06;;;;;;;11.68;10.13;;;;;;;7.25;100.00;100640.50;5030365;28;20041;-86
2022/02/03 14:14:41;;;;;;;13.02;9.60;;;;;;;7.07;100.00;100623.06;5055528;28;20040;-85
2022/02/03 14:17:50;;;;;;;12.02;7.57;;;;;;;7.04;100.00;100610.03;5012604;28;21144;-86
2022/02/03 14:28:34;;;;;;;13.02;8.35;;;;;;;6.88;100.00;100603.88;5018791;28;20048;-86
2022/02/03 14:31:06;;;;;;;8.85;7.68;;;;;;;6.87;100.00;100602.16;5011315;28;20044;-85
2022/02/03 14:33:35;;;;;;;10.23;7.18;;;;;;;6.89;100.00;100610.81;5015685;28;20049;-85
2022/02/03 14:36:07;;;;;;;10.23;6.72;;;;;;;6.93;100.00;100615.16;5043978;28;20037;-88
2022/02/03 14:38:41;;;;;;;10.88;6.47;;;;;;;6.98;100.00;100602.19;5039190;28;21608;-87
2022/02/03 14:41:18;;;;;;;9.73;6.75;;;;;;;6.94;100.00;100603.91;5025519;28;20048;-86
2022/02/03 14:43:45;;;;;;;9.23;6.97;;;;;;;6.95;100.00;100608.25;5011933;28;20048;-83
2022/02/03 14:46:15;;;;;;;9.77;6.57;;;;;;;6.99;100.00;100596.13;5023923;28;20207;-85
2022/02/03 14:48:45;;;;;;;9.43;7.25;;;;;;;6.96;100.00;100596.09;5013386;28;20048;-83
2022/02/03 14:51:21;;;;;;;9.10;7.63;;;;;;;6.92;100.00;100594.34;5011930;28;20486;-84
2022/02/03 14:53:55;;;;;;;9.77;8.52;;;;;;;6.93;100.00;100596.09;5030510;28;20102;-87
2022/02/03 14:59:08;;;;;;;15.75;11.52;;;;;;;6.87;100.00;100583.94;5005070;28;20044;-86
2022/02/03 15:01:35;;;;;;;11.40;9.18;;;;;;;6.87;100.00;100589.13;5025299;28;20079;-84
2022/02/03 15:04:06;;;;;;;11.23;8.93;;;;;;;6.89;100.00;100587.38;5037875;28;20048;-84
2022/02/03 15:06:38;;;;;;;12.35;9.02;;;;;;;6.86;100.00;100578.72;5045603;28;20061;-84
2022/02/03 15:09:34;;;;;;;14.13;9.40;;;;;;;6.90;100.00;100577.88;5029445;28;20282;-86
2022/02/03 15:12:08;;;;;;;12.77;9.93;;;;;;;6.85;100.00;100575.22;5013194;28;20048;-83
2022/02/03 15:14:36;;;;;;;12.25;10.32;;;;;;;6.82;100.00;100569.13;5046870;28;20048;-84
2022/02/03 15:17:03;;;;;;;12.25;9.40;;;;;;;6.83;100.00;100570.88;5024831;28;20040;-86
2022/02/03 15:19:30;;;;;;;13.80;9.82;;;;;;;6.84;100.00;100573.47;5012932;28;20079;-85
2022/02/03 15:21:57;;;;;;;14.07;11.20;;;;;;;6.84;100.00;100560.47;5024036;28;20127;-85
2022/02/03 15:24:24;;;;;;;14.75;10.70;;;;;;;6.85;99.65;100561.38;5013772;28;20037;-84
2022/02/03 15:26:50;;;;;;;14.30;9.90;;;;;;;6.85;99.63;100570.03;5017101;28;20630;-87
2022/02/03 15:29:19;;;;;;;13.52;10.18;;;;;;;6.82;98.96;100562.22;5022312;28;23301;-84
2022/02/03 15:31:46;;;;;;;14.02;10.05;;;;;;;6.83;98.76;100560.47;5027819;28;20071;-81
2022/02/03 15:34:19;;;;;;;13.00;9.88;;;;;;;6.83;98.41;100547.47;5020256;28;20503;-85
2022/02/03 15:36:49;;;;;;;14.27;11.52;;;;;;;6.81;98.20;100560.47;5012737;28;20184;-83
2022/02/03 15:39:21;;;;;;;16.75;10.68;;;;;;;6.83;97.76;100552.66;5011030;28;20049;-85
2022/02/03 15:41:50;;;;;;;13.07;10.05;;;;;;;6.80;97.13;100556.13;5025909;28;20044;-84
2022/02/03 15:44:18;;;;;;;14.68;10.10;;;;;;;6.78;97.20;100545.72;5035335;28;21496;-83
2022/02/03 15:46:57;;;;;;;15.82;10.80;;;;;;;6.78;96.88;100545.72;5044715;28;20436;-87
2022/02/03 15:49:46;;;;;;;13.43;10.32;;;;;;;6.77;97.04;100558.72;5029244;28;20356;-86
2022/02/03 16:00:57;;;;;;;15.13;9.68;;;;;;;6.68;96.42;100553.47;4997362;28;20079;-85
2022/02/03 16:03:30;;;;;;;10.57;8.32;;;;;;;6.62;96.65;100557.78;5023587;28;20179;-84
2022/02/03 16:16:57;;;;;;;15.02;10.10;;;;;;;6.57;96.01;100556.00;5036704;28;20059;-85
2022/02/03 16:19:33;;;;;;;18.48;10.70;;;;;;;6.55;96.23;100553.38;5029664;28;20050;-85
2022/02/03 16:22:05;;;;;;;12.90;9.35;;;;;;;6.55;95.75;100555.97;5037776;28;20059;-83
2022/02/03 16:24:42;;;;;;;14.15;9.38;;;;;;;6.54;95.46;100558.59;5032433;28;20514;-85
2022/02/03 16:41:03;;;;;;;;;;;;;;;6.48;95.62;100546.44;5042320;28;20040;-87
2022/02/03 16:54:36;;;;;;;12.75;10.13;;;;;;;6.41;95.27;100514.31;5036965;28;20048;-87
2022/02/03 16:57:15;;;;;;;12.60;9.60;;;;;;;6.42;94.61;100522.97;5045978;28;20056;-89
2022/02/03 16:59:51;;;;;;;13.48;9.23;;;;;;;6.39;94.35;100522.97;5045629;28;20045;-84
2022/02/03 17:02:18;;;;;;;14.07;10.52;;;;;;;6.38;94.92;100529.03;5036521;28;20159;-84
2022/02/03 17:04:46;;;;;;;15.00;10.85;;;;;;;6.35;94.78;100524.69;5037504;28;20040;-84
2022/02/03 17:07:13;;;;;;;14.73;9.55;;;;;;;6.33;94.71;100523.78;5036831;28;20131;-87
2022/02/03 17:09:44;;;;;;;12.85;9.75;;;;;;;6.36;94.37;100528.13;5029229;28;20049;-87
2022/02/03 17:12:10;;;;;;;13.05;10.25;;;;;;;6.33;94.64;100531.59;5043485;28;20055;-87
2022/02/03 17:14:38;;;;;;;15.50;10.27;;;;;;;6.34;94.21;100520.31;5020624;28;20048;-86
2022/02/03 17:17:05;;;;;;;15.98;10.50;;;;;;;6.31;95.02;100516.84;5041369;28;20060;-86
2022/02/03 17:19:32;;;;;;;12.48;9.98;;;;;;;6.32;94.45;100521.19;5040299;28;20079;-87
2022/02/03 17:22:01;;;;;;;12.93;10.18;;;;;;;6.29;94.41;100525.47;5028988;28;20059;-83
2022/02/03 17:24:28;;;;;;;13.40;8.93;;;;;;;6.32;94.34;100526.38;5048090;28;20041;-85
2022/02/03 17:27:00;;;;;;;14.32;10.23;;;;;;;6.28;94.37;100520.28;5027218;28;20044;-86
2022/02/03 17:29:38;;;;;;;15.52;10.93;;;;;;;6.31;94.01;100527.22;5047132;28;20561;-85
2022/02/03 17:32:15;;;;;;;15.63;10.55;;;;;;;6.29;94.09;100529.81;5031713;28;20067;-86
2022/02/03 18:08:16;;;;;;;13.38;10.52;;;;;;;5.96;96.31;100524.34;5054536;28;20048;-87
2022/02/03 18:10:47;;;;;;;16.27;11.32;;;;;;;5.97;96.58;100520.91;5053579;28;20048;-87
2022/02/03 18:29:58;;;;;;;15.57;12.77;;;;;;;5.83;97.95;100521.63;5038300;28;20166;-84
2022/02/03 18:32:46;;;;;;;19.55;11.85;;;;;;;5.78;98.61;100524.22;5032882;28;20100;-85
2022/02/03 18:52:04;;;;;;;22.45;12.10;;;;;;;5.65;99.56;100519.78;5011923;28;20150;-85
2022/02/03 18:54:43;;;;;;;16.30;12.15;;;;;;;5.67;99.26;100520.66;5018671;28;20114;-85
2022/02/03 18:57:26;;;;;;;19.13;12.93;;;;;;;5.64;99.53;100521.50;5047460;28;20134;-84
2022/02/03 20:05:17;;;;;;;16.60;12.13;;;;;;;5.61;98.92;100482.53;4969279;28;21542;-83
2022/02/03 20:07:54;;;;;;;17.52;10.90;;;;;;;5.57;98.97;100480.75;5011671;28;20388;-85
2022/02/03 20:10:26;;;;;;;22.67;13.05;;;;;;;5.52;99.39;100478.09;5033033;28;20090;-84
2022/02/03 20:12:57;;;;;;;16.80;11.75;;;;;;;5.50;99.50;100479.84;5004874;28;20075;-88
2022/02/03 20:15:25;;;;;;;18.70;11.20;;;;;;;5.51;99.77;100480.69;5032439;28;20061;-86
2022/02/03 20:17:55;;;;;;;16.48;10.68;;;;;;;5.55;99.29;100483.31;5023381;28;20048;-86
2022/02/03 20:20:24;;;;;;;20.98;11.18;;;;;;;5.54;99.55;100486.78;5036618;28;20103;-85
2022/02/03 20:22:51;;;;;;;15.75;10.68;;;;;;;5.54;99.08;100484.19;5034412;28;20158;-86
2022/02/03 20:25:18;;;;;;;16.45;11.10;;;;;;;5.56;99.33;100487.66;5044037;28;20038;-85
2022/02/03 20:30:35;;;;;;;16.00;10.82;;;;;;;5.58;98.79;100485.06;5076449;23;20060;-87
2022/02/03 20:33:10;;;;;;;13.40;9.15;;;;;;;5.58;99.22;100477.28;5053334;28;20056;-85
2022/02/03 20:35:37;;;;;;;14.73;10.45;;;;;;;5.59;98.52;100474.72;5045336;28;20148;-84
2022/02/03 20:38:08;;;;;;;14.60;11.27;;;;;;;5.60;98.81;100480.78;4670057;28;9999710;-82
2022/02/03 20:40:37;;;;;;;14.75;9.75;;;;;;;5.62;98.58;100473.88;5037250;28;20103;-86
2022/02/03 20:43:06;;;;;;;15.07;10.10;;;;;;;5.59;98.63;100474.72;5058580;28;20064;-86
2022/02/03 20:45:36;;;;;;;13.63;11.93;;;;;;;5.56;99.41;100466.03;5043935;28;20102;-84
2022/02/03 20:48:04;;;;;;;17.65;11.70;;;;;;;5.53;99.40;100466.88;5049317;28;20091;-84
2022/02/03 20:50:32;;;;;;;14.35;11.20;;;;;;;5.51;99.37;100470.31;5052263;28;20146;-89
2022/02/03 20:52:58;;;;;;;14.95;11.73;;;;;;;5.51;99.79;100471.16;5013457;28;20029;-84